Time;durP1;ratioP1;P1;durP2;ratioP2;P2;SDS_P1;SDS_P2;PMS_P1;PMS_P2;Temp;Humidity;BMP_temperature;BMP_pressure;BME280_temperature;BME280_humidity;BME280_pressure;Samples;Min_cycle;Max_cycle;Signal;HPM_P1;HPM_P2
2022/03/11 00:02:22;;;;;;;29.10;11.95;;;;;;;-3.17;55.11;103214.34;5001061;28;20046;-63
2022/03/11 00:04:48;;;;;;;29.83;12.07;;;;;;;-3.18;54.97;103216.00;5000738;28;20053;-62
2022/03/11 00:07:15;;;;;;;30.33;11.00;;;;;;;-3.18;54.85;103221.06;5000764;28;20058;-63
2022/03/11 00:09:43;;;;;;;25.10;11.07;;;;;;;-3.18;55.10;103226.13;5002198;28;20045;-63
2022/03/11 00:12:10;;;;;;;29.50;12.35;;;;;;;-3.18;54.83;103221.06;4994937;28;20056;-61
2022/03/11 00:14:37;;;;;;;31.48;13.13;;;;;;;-3.20;55.04;103222.59;4997521;28;20046;-62
2022/03/11 00:17:04;;;;;;;35.03;15.02;;;;;;;-3.21;55.17;103223.34;5002683;28;20058;-62
2022/03/11 00:19:31;;;;;;;29.15;12.77;;;;;;;-3.22;55.00;103224.09;5005937;28;20052;-61
2022/03/11 00:21:57;;;;;;;28.77;12.10;;;;;;;-3.23;55.38;103226.50;4997361;28;20158;-63
2022/03/11 00:24:24;;;;;;;28.27;12.57;;;;;;;-3.25;55.52;103218.75;5001274;28;20133;-63
2022/03/11 00:26:52;;;;;;;31.05;12.00;;;;;;;-3.26;55.32;103232.19;5002215;28;20046;-63
2022/03/11 00:29:19;;;;;;;33.28;12.35;;;;;;;-3.28;55.75;103222.69;5005329;28;20514;-62
2022/03/11 00:31:46;;;;;;;31.15;12.60;;;;;;;-3.30;55.49;103221.66;5002078;28;20050;-63
2022/03/11 00:34:12;;;;;;;32.10;11.30;;;;;;;-3.31;55.65;103209.72;4997792;28;20130;-63
2022/03/11 00:36:40;;;;;;;29.17;13.43;;;;;;;-3.32;55.57;103215.56;4998461;28;20054;-63
2022/03/11 00:39:06;;;;;;;29.15;11.98;;;;;;;-3.35;55.96;103218.72;5005290;28;20061;-63
2022/03/11 00:41:32;;;;;;;28.42;12.35;;;;;;;-3.36;55.54;103219.47;5001992;28;20054;-63
2022/03/11 00:44:00;;;;;;;32.85;14.20;;;;;;;-3.37;55.98;103220.22;5002901;28;20057;-62
2022/03/11 00:46:27;;;;;;;34.30;13.27;;;;;;;-3.41;55.83;103225.78;5001779;28;20045;-62
2022/03/11 00:48:53;;;;;;;41.55;16.42;;;;;;;-3.42;55.92;103226.56;5000379;28;20406;-63
2022/03/11 00:51:20;;;;;;;33.97;13.73;;;;;;;-3.43;56.27;103229.84;5000530;28;20057;-62
2022/03/11 00:53:46;;;;;;;35.55;16.52;;;;;;;-3.43;56.77;103232.38;4999993;28;20045;-63
2022/03/11 00:56:12;;;;;;;40.75;16.27;;;;;;;-3.43;56.70;103221.34;5003635;28;20053;-62
2022/03/11 00:58:39;;;;;;;39.03;16.33;;;;;;;-3.45;57.15;103221.22;5001768;28;20104;-61
2022/03/11 01:01:07;;;;;;;33.50;13.63;;;;;;;-3.46;56.97;103227.03;4999495;28;20053;-62
2022/03/11 01:03:34;;;;;;;28.92;13.60;;;;;;;-3.48;57.13;103218.41;4998860;28;20057;-62
2022/03/11 01:06:00;;;;;;;31.48;13.68;;;;;;;-3.52;57.39;103216.38;4997950;28;20249;-62
2022/03/11 01:08:26;;;;;;;29.55;13.02;;;;;;;-3.55;57.73;103219.53;4998201;28;20050;-62
2022/03/11 01:10:53;;;;;;;32.88;13.60;;;;;;;-3.60;57.94;103208.09;5001695;28;20050;-62
2022/03/11 01:13:19;;;;;;;38.15;15.77;;;;;;;-3.62;57.97;103213.78;5002030;28;20053;-62
2022/03/11 01:15:46;;;;;;;37.05;14.57;;;;;;;-3.67;58.17;103220.06;5005332;28;20061;-62
2022/03/11 01:18:13;;;;;;;36.95;15.93;;;;;;;-3.73;58.59;103215.34;5006321;28;20057;-62
2022/03/11 01:20:40;;;;;;;53.72;22.45;;;;;;;-3.77;58.66;103214.94;4999938;28;20111;-62
2022/03/11 01:23:06;;;;;;;42.47;17.45;;;;;;;-3.82;59.15;103212.88;5005401;28;20066;-62
2022/03/11 01:25:33;;;;;;;94.65;36.75;;;;;;;-3.86;59.30;103210.84;4994440;28;20056;-63
2022/03/11 01:27:59;;;;;;;95.30;41.05;;;;;;;-3.91;59.62;103209.53;5001574;28;20822;-62
2022/03/11 01:30:26;;;;;;;52.03;22.92;;;;;;;-3.96;60.29;103203.16;5004589;28;20054;-63
2022/03/11 01:32:53;;;;;;;51.58;20.48;;;;;;;-3.99;61.00;103195.28;5000205;28;20498;-63
2022/03/11 01:35:21;;;;;;;52.92;20.75;;;;;;;-4.01;60.44;103199.34;4998471;28;20061;-63
2022/03/11 01:37:47;;;;;;;73.82;29.08;;;;;;;-4.01;59.92;103191.72;5001890;28;20067;-62
2022/03/11 01:40:14;;;;;;;86.28;37.33;;;;;;;-4.03;60.33;103197.41;5002785;28;20096;-62
2022/03/11 01:42:40;;;;;;;57.78;22.23;;;;;;;-4.04;60.68;103198.19;5003437;28;20064;-62
2022/03/11 01:45:07;;;;;;;38.75;15.70;;;;;;;-4.06;60.88;103197.16;5000575;28;20042;-63
2022/03/11 01:47:34;;;;;;;43.35;17.15;;;;;;;-4.08;60.80;103193.59;5004864;28;20672;-62
2022/03/11 01:50:00;;;;;;;75.25;29.88;;;;;;;-4.10;60.47;103195.97;5002190;28;20050;-62
2022/03/11 01:52:28;;;;;;;78.45;32.55;;;;;;;-4.14;60.24;103183.78;5003347;28;20060;-62
2022/03/11 01:54:56;;;;;;;46.53;18.77;;;;;;;-4.15;60.70;103189.63;5003002;28;20050;-62
2022/03/11 01:57:23;;;;;;;43.75;17.88;;;;;;;-4.17;60.73;103188.56;5000649;28;20649;-63
2022/03/11 01:59:49;;;;;;;41.80;15.65;;;;;;;-4.18;60.64;103186.78;5001732;28;20057;-61
2022/03/11 02:02:16;;;;;;;41.67;17.80;;;;;;;-4.18;60.85;103189.31;5005157;28;20053;-61
2022/03/11 02:04:43;;;;;;;41.70;16.45;;;;;;;-4.20;60.56;103185.75;5003457;28;20064;-62
2022/03/11 02:07:10;;;;;;;37.40;15.63;;;;;;;-4.19;60.38;103192.59;5003412;28;20077;-61
2022/03/11 02:09:38;;;;;;;33.67;14.27;;;;;;;-4.20;60.26;103188.28;5000190;28;20081;-62
2022/03/11 02:12:05;;;;;;;36.67;15.13;;;;;;;-4.19;60.26;103192.59;5000265;28;20069;-62
2022/03/11 02:14:31;;;;;;;34.13;15.13;;;;;;;-4.18;59.89;103186.78;5000108;28;20550;-59
2022/03/11 02:16:58;;;;;;;42.28;18.05;;;;;;;-4.19;60.13;103195.13;4996961;28;20361;-61
2022/03/11 02:19:24;;;;;;;41.10;15.15;;;;;;;-4.18;60.17;103186.78;4998437;28;20138;-62
2022/03/11 02:21:53;;;;;;;35.13;14.45;;;;;;;-4.17;59.51;103188.56;4999435;28;20054;-62
2022/03/11 02:24:22;;;;;;;38.53;13.77;;;;;;;-4.18;59.84;103189.31;5002170;28;20145;-63
2022/03/11 02:26:49;;;;;;;33.15;13.55;;;;;;;-4.17;59.76;103196.16;5003403;28;20783;-62
2022/03/11 02:29:15;;;;;;;38.80;15.20;;;;;;;-4.18;59.92;103204.50;5003002;28;20057;-61
2022/03/11 02:31:41;;;;;;;33.47;14.90;;;;;;;-4.21;60.24;103199.16;5000721;28;20058;-62
2022/03/11 02:34:08;;;;;;;38.75;16.35;;;;;;;-4.22;59.93;103189.78;5000949;28;20054;-62
2022/03/11 02:36:34;;;;;;;37.72;15.77;;;;;;;-4.24;60.00;103193.81;4993385;28;20054;-63
2022/03/11 02:39:01;;;;;;;31.00;13.88;;;;;;;-4.25;60.12;103185.34;4994636;28;20054;-62
2022/03/11 02:41:29;;;;;;;34.35;14.18;;;;;;;-4.28;60.05;103184.16;5001616;28;20064;-62
2022/03/11 02:43:55;;;;;;;42.70;17.35;;;;;;;-4.28;60.37;103184.16;5002681;28;20669;-62
2022/03/11 02:46:22;;;;;;;40.60;15.73;;;;;;;-4.31;60.20;103191.50;5000687;28;20707;-62
2022/03/11 02:48:48;;;;;;;50.53;18.83;;;;;;;-4.34;60.52;103193.75;4999798;28;20617;-63
2022/03/11 02:51:15;;;;;;;54.05;20.05;;;;;;;-4.35;60.76;103202.09;5000775;28;20050;-62
2022/03/11 02:53:42;;;;;;;37.83;16.25;;;;;;;-4.38;61.02;103202.72;5001666;28;20495;-61
2022/03/11 02:56:09;;;;;;;43.63;18.55;;;;;;;-4.41;61.28;103206.59;4999632;28;20035;-63
2022/03/11 02:58:37;;;;;;;33.63;15.20;;;;;;;-4.43;61.28;103208.09;4996988;28;20052;-62
2022/03/11 03:01:04;;;;;;;37.47;14.18;;;;;;;-4.45;61.24;103206.31;4994248;28;20468;-62
2022/03/11 03:03:31;;;;;;;35.80;14.75;;;;;;;-4.47;61.30;103202.75;5002325;28;20046;-63
2022/03/11 03:05:57;;;;;;;50.03;20.00;;;;;;;-4.50;61.35;103207.56;4998296;28;20061;-63
2022/03/11 03:08:23;;;;;;;55.85;24.23;;;;;;;-4.52;61.75;103204.00;5000457;28;20057;-63
2022/03/11 03:10:50;;;;;;;49.72;18.88;;;;;;;-4.53;61.82;103202.22;4998063;28;20046;-63
2022/03/11 03:13:18;;;;;;;48.13;17.83;;;;;;;-4.56;61.74;103191.81;4998719;28;20434;-63
2022/03/11 03:15:46;;;;;;;64.05;24.27;;;;;;;-4.59;62.15;103194.06;4997599;28;20050;-62
2022/03/11 03:18:12;;;;;;;53.17;20.25;;;;;;;-4.60;62.55;103194.81;4999413;28;20053;-62
2022/03/11 03:20:38;;;;;;;55.70;21.67;;;;;;;-4.62;63.06;103198.84;4996867;28;20057;-63
2022/03/11 03:23:05;;;;;;;48.83;20.20;;;;;;;-4.65;62.87;103190.97;4996797;28;20065;-63
2022/03/11 03:25:31;;;;;;;48.85;19.35;;;;;;;-4.68;62.69;103187.22;4995792;28;20065;-63
2022/03/11 03:27:58;;;;;;;36.67;17.00;;;;;;;-4.72;62.94;103190.22;4996399;28;20053;-63
2022/03/11 03:30:24;;;;;;;43.10;16.08;;;;;;;-4.76;63.94;103191.59;4996184;28;20066;-63
2022/03/11 03:32:52;;;;;;;35.45;15.65;;;;;;;-4.75;63.54;103193.38;4996840;28;20054;-63
2022/03/11 03:35:19;;;;;;;31.65;13.15;;;;;;;-4.78;63.26;103193.09;4999591;28;20046;-62
2022/03/11 03:37:45;;;;;;;30.73;11.55;;;;;;;-4.80;62.90;103195.47;5001511;28;20045;-63
2022/03/11 03:40:12;;;;;;;32.35;12.80;;;;;;;-4.82;62.69;103196.97;5000755;28;20169;-63
2022/03/11 03:42:39;;;;;;;32.63;13.65;;;;;;;-4.82;62.62;103201.16;5000071;28;20510;-63
2022/03/11 03:45:07;;;;;;;33.35;13.30;;;;;;;-4.85;62.52;103200.88;4999653;28;20050;-63
2022/03/11 03:47:33;;;;;;;29.08;12.93;;;;;;;-4.92;62.88;103207.00;5000272;28;20132;-62
2022/03/11 03:50:01;;;;;;;26.42;11.90;;;;;;;-4.96;63.21;103206.56;5004794;28;20140;-62
2022/03/11 03:52:28;;;;;;;34.97;14.95;;;;;;;-5.01;63.80;103202.72;5008485;28;20522;-62
2022/03/11 03:54:55;;;;;;;40.80;16.08;;;;;;;-5.06;63.96;103209.00;5005138;28;20514;-62
2022/03/11 03:57:22;;;;;;;38.85;16.90;;;;;;;-5.13;64.36;103205.91;5002897;28;20050;-63
2022/03/11 03:59:48;;;;;;;35.50;15.13;;;;;;;-5.17;64.64;103198.75;5000393;28;20065;-64
2022/03/11 04:02:15;;;;;;;39.90;16.10;;;;;;;-5.21;64.77;103201.72;5006061;28;20056;-63
2022/03/11 04:04:41;;;;;;;38.35;17.60;;;;;;;-5.23;65.27;103205.75;5004906;28;20049;-63
2022/03/11 04:07:09;;;;;;;41.15;17.25;;;;;;;-5.26;65.30;103202.94;5002403;28;20633;-64
2022/03/11 04:09:35;;;;;;;41.47;17.77;;;;;;;-5.26;65.29;103202.94;5003497;28;20058;-63
2022/03/11 04:12:02;;;;;;;44.53;18.27;;;;;;;-5.29;65.27;103209.34;4999265;28;20049;-63
2022/03/11 04:14:28;;;;;;;37.83;16.88;;;;;;;-5.31;65.52;103209.19;5002821;28;20057;-63
2022/03/11 04:16:55;;;;;;;44.85;18.92;;;;;;;-5.34;65.26;103206.38;4997748;28;20061;-62
2022/03/11 04:19:21;;;;;;;39.70;16.23;;;;;;;-5.37;65.55;103211.13;5004504;28;20077;-62
2022/03/11 04:21:48;;;;;;;33.97;12.90;;;;;;;-5.39;65.13;103210.09;5000721;28;20523;-63
2022/03/11 04:24:17;;;;;;;25.08;10.40;;;;;;;-5.40;64.77;103213.38;4999244;28;20054;-61
2022/03/11 04:26:44;;;;;;;29.27;12.88;;;;;;;-5.41;64.94;103209.06;4996447;28;20073;-62
2022/03/11 04:29:11;;;;;;;30.60;10.68;;;;;;;-5.41;64.60;103204.00;4998346;28;20046;-63
2022/03/11 04:31:38;;;;;;;25.13;9.45;;;;;;;-5.40;64.51;103203.28;5002992;28;20707;-62
2022/03/11 04:34:05;;;;;;;23.50;9.35;;;;;;;-5.37;64.35;103206.09;4996511;28;20149;-63
2022/03/11 04:36:35;;;;;;;21.25;9.65;;;;;;;-5.33;64.26;103203.09;5001887;28;20058;-63
2022/03/11 04:39:01;;;;;;;23.20;8.43;;;;;;;-5.31;63.98;103201.59;4999142;28;20470;-62
2022/03/11 04:41:29;;;;;;;27.02;10.27;;;;;;;-5.31;64.62;103210.81;5000228;28;20061;-63
2022/03/11 04:43:56;;;;;;;20.48;9.88;;;;;;;-5.30;63.99;103200.84;5002689;28;20447;-63
2022/03/11 04:46:23;;;;;;;20.48;8.70;;;;;;;-5.28;63.93;103209.47;4999253;28;20475;-63
2022/03/11 04:48:49;;;;;;;26.35;10.10;;;;;;;-5.26;64.41;103209.63;4997038;28;21078;-63
2022/03/11 04:51:16;;;;;;;21.40;8.82;;;;;;;-5.27;64.26;103213.78;5001657;28;20116;-63
2022/03/11 04:53:42;;;;;;;35.72;11.52;;;;;;;-5.27;64.40;103211.25;5004055;28;21227;-63
2022/03/11 04:56:09;;;;;;;23.25;9.13;;;;;;;-5.27;64.67;103206.19;5003344;28;20060;-63
2022/03/11 04:58:37;;;;;;;22.33;9.30;;;;;;;-5.29;64.42;103207.69;4991989;28;20050;-63
2022/03/11 05:01:03;;;;;;;25.63;9.68;;;;;;;-5.30;64.43;103198.34;4995646;28;20049;-63
2022/03/11 05:03:30;;;;;;;31.60;9.93;;;;;;;-5.30;64.62;103200.84;4999393;28;20050;-63
2022/03/11 05:05:56;;;;;;;28.13;9.27;;;;;;;-5.29;64.79;103194.16;4996874;28;20057;-64
2022/03/11 05:08:23;;;;;;;24.30;10.70;;;;;;;-5.31;64.69;103194.03;5003957;28;20050;-63
2022/03/11 05:10:50;;;;;;;22.67;9.35;;;;;;;-5.33;64.92;103187.03;5003709;28;20867;-62
2022/03/11 05:13:16;;;;;;;29.98;10.85;;;;;;;-5.34;65.29;103185.25;5002399;28;20068;-63
2022/03/11 05:15:44;;;;;;;28.15;10.55;;;;;;;-5.35;65.29;103179.31;5003139;28;20045;-63
2022/03/11 05:18:11;;;;;;;28.35;10.55;;;;;;;-5.34;65.61;103186.16;5004263;28;20065;-63
2022/03/11 05:20:38;;;;;;;43.72;15.43;;;;;;;-5.34;65.92;103185.25;5000220;28;20065;-64
2022/03/11 05:23:04;;;;;;;38.08;13.13;;;;;;;-5.34;66.65;103185.25;4998627;28;20573;-63
2022/03/11 05:25:31;;;;;;;35.83;13.18;;;;;;;-5.36;66.61;103175.00;4999407;28;20050;-64
2022/03/11 05:27:57;;;;;;;28.25;11.90;;;;;;;-5.37;67.07;103175.75;4997260;28;20509;-63
2022/03/11 05:30:24;;;;;;;32.03;10.65;;;;;;;-5.38;67.04;103173.97;4995584;28;20529;-63
2022/03/11 05:32:51;;;;;;;28.65;11.57;;;;;;;-5.38;67.27;103173.97;5002842;28;20054;-64
2022/03/11 05:35:18;;;;;;;29.30;11.38;;;;;;;-5.39;67.04;103174.72;4999219;28;20049;-63
2022/03/11 05:37:46;;;;;;;27.75;11.82;;;;;;;-5.34;67.25;103165.91;5004785;28;20045;-63
2022/03/11 05:40:13;;;;;;;29.17;11.57;;;;;;;-5.32;67.13;103174.53;4996993;28;20069;-63
2022/03/11 05:42:39;;;;;;;29.00;11.52;;;;;;;-5.30;67.14;103188.22;4999975;28;20053;-63
2022/03/11 05:45:07;;;;;;;26.95;11.93;;;;;;;-5.28;67.08;103189.25;5005090;28;20050;-63
2022/03/11 05:47:34;;;;;;;32.42;11.88;;;;;;;-5.25;67.29;103197.13;5001525;28;20135;-63
2022/03/11 05:50:01;;;;;;;31.38;11.35;;;;;;;-5.19;67.11;103201.91;5003202;28;20499;-63
2022/03/11 05:52:28;;;;;;;34.78;13.55;;;;;;;-5.13;67.18;103198.31;5000930;28;20103;-64
2022/03/11 05:54:54;;;;;;;33.13;12.57;;;;;;;-5.07;67.22;103194.56;5002629;28;20065;-64
2022/03/11 05:57:21;;;;;;;31.88;11.88;;;;;;;-5.00;67.08;103199.44;4998956;28;20132;-62
2022/03/11 05:59:47;;;;;;;35.97;13.20;;;;;;;-4.93;66.93;103201.78;5001763;28;20053;-63
2022/03/11 06:02:14;;;;;;;32.97;12.45;;;;;;;-4.85;66.98;103206.81;5002709;28;20050;-64
2022/03/11 06:04:41;;;;;;;41.03;13.73;;;;;;;-4.78;66.93;103213.34;5001197;28;20053;-63
2022/03/11 06:07:09;;;;;;;32.78;13.57;;;;;;;-4.69;66.74;103219.25;5001306;28;20104;-63
2022/03/11 06:09:35;;;;;;;45.22;14.50;;;;;;;-4.60;66.73;103215.06;4997144;28;20061;-63
2022/03/11 06:12:02;;;;;;;39.13;13.13;;;;;;;-4.48;66.73;103226.31;5000459;28;20065;-63
2022/03/11 06:14:29;;;;;;;37.58;13.10;;;;;;;-4.36;66.42;103218.94;4998333;28;20061;-63
2022/03/11 06:16:55;;;;;;;30.75;13.02;;;;;;;-4.23;66.64;103224.34;4999834;28;20487;-64
2022/03/11 06:19:22;;;;;;;30.23;13.30;;;;;;;-4.07;66.40;103215.63;5000212;28;20053;-63
2022/03/11 06:21:48;;;;;;;28.17;12.40;;;;;;;-3.90;66.17;103223.97;5001861;28;20746;-63
2022/03/11 06:24:16;;;;;;;31.45;13.10;;;;;;;-3.65;65.07;103221.09;5003452;28;20057;-63
2022/03/11 06:26:43;;;;;;;30.42;13.02;;;;;;;-3.34;63.45;103220.50;5000436;28;20053;-63
2022/03/11 06:29:10;;;;;;;30.45;12.90;;;;;;;-3.08;62.86;103221.88;5000450;28;20197;-62
2022/03/11 06:31:37;;;;;;;24.25;12.75;;;;;;;-2.87;63.09;103223.72;4999827;28;20077;-62
2022/03/11 06:34:04;;;;;;;34.92;13.15;;;;;;;-2.61;61.46;103226.81;5000073;28;20133;-61
2022/03/11 06:36:30;;;;;;;36.70;13.20;;;;;;;-2.32;60.74;103223.28;4996759;28;20061;-61
2022/03/11 06:38:57;;;;;;;31.15;12.73;;;;;;;-1.97;58.91;103222.03;4990564;28;20057;-61
2022/03/11 06:41:25;;;;;;;26.58;11.45;;;;;;;-1.73;58.74;103214.59;5001120;28;20054;-62
2022/03/11 06:43:52;;;;;;;29.17;12.20;;;;;;;-1.51;58.71;103217.25;4995171;28;20066;-62
2022/03/11 06:46:18;;;;;;;38.72;13.45;;;;;;;-1.29;57.31;103221.59;4994966;28;20046;-61
2022/03/11 06:48:45;;;;;;;46.22;18.38;;;;;;;-1.07;56.80;103216.53;4998168;28;20046;-61
2022/03/11 06:51:11;;;;;;;32.38;13.20;;;;;;;-0.87;55.85;103228.28;4996593;28;20508;-62
2022/03/11 06:53:38;;;;;;;41.88;16.42;;;;;;;-0.67;53.86;103233.25;4992885;28;20506;-61
2022/03/11 06:56:05;;;;;;;26.70;11.80;;;;;;;-0.45;53.41;103234.91;4996626;28;20061;-62
2022/03/11 06:58:34;;;;;;;22.73;10.10;;;;;;;-0.23;50.91;103233.19;4998048;28;20367;-62
2022/03/11 07:01:00;;;;;;;18.95;9.60;;;;;;;0.05;51.00;103230.16;5001458;28;20144;-62
2022/03/11 07:03:26;;;;;;;26.25;10.77;;;;;;;0.21;50.47;103233.94;5000531;28;20064;-62
2022/03/11 07:05:53;;;;;;;20.00;9.73;;;;;;;0.37;48.59;103233.41;4995289;28;20396;-62
2022/03/11 07:08:19;;;;;;;25.92;12.23;;;;;;;0.51;48.63;103235.28;4992677;28;20054;-61
2022/03/11 07:10:46;;;;;;;28.67;14.05;;;;;;;0.62;49.12;103224.19;4993990;28;20076;-60
2022/03/11 07:13:12;;;;;;;22.23;10.48;;;;;;;0.70;49.02;103221.31;5003455;28;20131;-60
2022/03/11 07:15:40;;;;;;;25.00;10.85;;;;;;;0.78;48.23;103217.63;4998982;28;20042;-59
2022/03/11 07:18:06;;;;;;;35.45;14.43;;;;;;;0.88;47.93;103217.50;5002088;28;20054;-61
2022/03/11 07:20:33;;;;;;;44.15;19.25;;;;;;;0.93;48.04;103222.16;5003276;28;20506;-60
2022/03/11 07:23:00;;;;;;;32.33;13.85;;;;;;;1.02;48.15;103221.91;5000191;28;20141;-58
2022/03/11 07:25:27;;;;;;;39.45;16.50;;;;;;;1.06;47.27;103223.91;4999078;28;20054;-58
2022/03/11 07:27:53;;;;;;;26.00;11.23;;;;;;;1.14;47.21;103219.34;4997676;28;20069;-58
2022/03/11 07:30:19;;;;;;;18.67;8.50;;;;;;;1.12;45.23;103209.00;4995738;28;20061;-57
2022/03/11 07:32:50;;;;;;;18.02;9.25;;;;;;;1.16;46.08;103216.09;5002076;28;20501;-62
2022/03/11 07:35:16;;;;;;;27.23;12.70;;;;;;;1.16;45.08;103211.00;4997419;28;20045;-57
2022/03/11 07:37:43;;;;;;;24.17;11.02;;;;;;;1.18;45.03;103211.09;4998562;28;20054;-64
2022/03/11 07:40:11;;;;;;;28.27;11.23;;;;;;;1.30;45.15;103213.59;5000779;28;20052;-61
2022/03/11 07:42:41;;;;;;;26.42;13.05;;;;;;;1.37;44.66;103208.13;5000660;28;20105;-59
2022/03/11 07:45:08;;;;;;;19.90;7.72;;;;;;;1.52;44.30;103206.59;4998833;28;20470;-55
2022/03/11 07:47:35;;;;;;;34.40;11.05;;;;;;;1.68;44.49;103203.44;5001453;28;20046;-60
2022/03/11 07:50:03;;;;;;;20.48;9.25;;;;;;;1.79;42.73;103213.59;4999743;28;20054;-60
2022/03/11 07:52:29;;;;;;;17.77;8.50;;;;;;;1.88;41.77;103198.84;5001326;28;20057;-59
2022/03/11 07:54:56;;;;;;;23.67;10.57;;;;;;;1.98;41.73;103195.22;4996131;28;20385;-61
2022/03/11 07:57:22;;;;;;;21.80;10.40;;;;;;;2.05;41.12;103199.97;4996933;28;20100;-60
2022/03/11 07:59:49;;;;;;;18.80;9.38;;;;;;;2.21;41.83;103201.88;4998701;28;20060;-58
2022/03/11 08:02:15;;;;;;;18.58;9.82;;;;;;;2.32;40.97;103210.22;5000216;28;20058;-52
2022/03/11 08:04:42;;;;;;;36.70;13.32;;;;;;;2.43;41.07;103207.56;4997691;28;20149;-55
2022/03/11 08:07:11;;;;;;;20.75;8.80;;;;;;;2.66;40.96;103211.63;5002124;28;20065;-55
2022/03/11 08:13:40;;;;;;;16.02;9.13;;;;;;;3.17;37.73;103208.84;4987530;28;20092;-57
2022/03/11 08:16:07;;;;;;;16.23;7.45;;;;;;;3.42;38.98;103215.44;4993712;28;20045;-59
2022/03/11 08:18:34;;;;;;;20.70;8.55;;;;;;;3.64;38.17;103208.25;4993074;28;20061;-53
2022/03/11 08:21:01;;;;;;;30.23;9.57;;;;;;;3.84;37.39;103203.41;4998165;28;20057;-51
2022/03/11 08:23:29;;;;;;;19.55;8.63;;;;;;;4.06;36.75;103203.84;4997404;28;20407;-53
2022/03/11 08:25:56;;;;;;;14.85;8.32;;;;;;;4.25;36.63;103196.41;4995946;28;20382;-57
2022/03/11 08:28:23;;;;;;;19.63;7.63;;;;;;;4.38;35.19;103198.88;4991241;28;20049;-57
2022/03/11 08:30:50;;;;;;;20.88;9.73;;;;;;;4.52;35.40;103196.19;4992287;28;20050;-57
2022/03/11 08:33:20;;;;;;;22.15;8.70;;;;;;;4.66;34.74;103195.25;4995668;28;20049;-58
2022/03/11 08:35:47;;;;;;;23.73;7.50;;;;;;;4.77;33.61;103194.19;4999517;28;20561;-63
2022/03/11 08:38:13;;;;;;;16.63;6.60;;;;;;;4.94;32.81;103187.38;4996528;28;20525;-60
2022/03/11 08:40:41;;;;;;;21.80;8.90;;;;;;;5.15;32.82;103185.03;4998177;28;20053;-58
2022/03/11 08:43:09;;;;;;;14.88;7.18;;;;;;;5.30;31.78;103185.88;4993428;28;20053;-68
2022/03/11 08:45:36;;;;;;;18.35;7.97;;;;;;;5.31;30.88;103190.22;4996211;28;20069;-58
2022/03/11 08:48:02;;;;;;;27.67;13.07;;;;;;;5.55;31.67;103191.47;4993211;28;20054;-58
2022/03/11 08:50:29;;;;;;;44.85;21.55;;;;;;;5.63;30.97;103204.72;4997667;28;20045;-59
2022/03/11 08:52:56;;;;;;;27.50;11.98;;;;;;;5.69;30.92;103190.47;5001510;28;20053;-57
2022/03/11 08:55:22;;;;;;;40.25;18.27;;;;;;;5.61;30.25;103191.78;4998280;28;20065;-57
2022/03/11 08:57:51;;;;;;;26.10;10.75;;;;;;;5.58;30.12;103195.88;4999051;28;20470;-58
2022/03/11 09:00:19;;;;;;;23.48;10.00;;;;;;;5.46;29.79;103201.28;4996010;28;20058;-59
2022/03/11 09:02:46;;;;;;;13.80;6.40;;;;;;;5.27;29.82;103190.84;4996554;28;20057;-63
2022/03/11 09:05:15;;;;;;;12.15;5.80;;;;;;;5.32;30.37;103202.25;4991661;28;20072;-59
2022/03/11 09:07:41;;;;;;;24.38;10.27;;;;;;;5.19;30.74;103189.53;4998918;28;20557;-62
2022/03/11 09:10:10;;;;;;;7.93;4.97;;;;;;;5.11;29.44;103190.81;4987976;28;20468;-60
2022/03/11 09:12:37;;;;;;;12.05;6.55;;;;;;;5.24;30.32;103188.13;4994336;28;20707;-58
2022/03/11 09:15:05;;;;;;;12.77;5.25;;;;;;;5.24;29.79;103191.59;4996802;28;20065;-60
2022/03/11 09:17:32;;;;;;;13.20;6.45;;;;;;;5.23;29.86;103194.06;5001145;28;20395;-64
2022/03/11 09:20:02;;;;;;;20.77;6.15;;;;;;;5.26;29.59;103194.22;4996535;28;20050;-61
2022/03/11 09:22:29;;;;;;;27.08;8.88;;;;;;;5.30;30.77;103183.31;4996969;28;20053;-60
2022/03/11 09:24:55;;;;;;;11.27;6.05;;;;;;;5.35;30.13;103182.72;4993170;28;20053;-60
2022/03/11 09:27:23;;;;;;;34.28;18.60;;;;;;;5.41;30.48;103187.31;4993746;28;20057;-58
2022/03/11 09:29:50;;;;;;;21.58;10.90;;;;;;;5.51;30.41;103189.53;4993371;28;20485;-53
2022/03/11 09:32:18;;;;;;;63.83;23.10;;;;;;;5.64;30.83;103191.94;4993941;28;20401;-62
2022/03/11 09:34:44;;;;;;;11.23;5.70;;;;;;;5.71;29.84;103187.97;4994636;28;20767;-55
2022/03/11 09:37:11;;;;;;;12.30;6.40;;;;;;;5.82;29.50;103185.97;4997621;28;20132;-48
2022/03/11 09:39:39;;;;;;;9.82;5.95;;;;;;;5.94;29.96;103186.59;4997265;28;20062;-57
2022/03/11 09:42:06;;;;;;;13.45;6.80;;;;;;;5.92;29.95;103186.53;4997121;28;20073;-57
2022/03/11 09:44:33;;;;;;;19.55;9.48;;;;;;;5.94;30.07;103171.16;4996158;28;20060;-59
2022/03/11 09:47:00;;;;;;;18.98;8.95;;;;;;;6.06;30.84;103165.72;4996844;28;20053;-60
2022/03/11 09:49:33;;;;;;;12.13;5.93;;;;;;;6.20;30.64;103170.72;4995666;28;20577;-62
2022/03/11 09:52:01;;;;;;;33.58;14.93;;;;;;;6.30;30.21;103162.66;4998358;28;20112;-60
2022/03/11 09:54:27;;;;;;;15.95;7.18;;;;;;;6.37;30.17;103168.09;5001443;28;20460;-60
2022/03/11 09:56:54;;;;;;;12.50;7.35;;;;;;;6.45;29.79;103169.34;5001725;28;20527;-65
2022/03/11 09:59:21;;;;;;;15.13;6.15;;;;;;;6.49;29.91;103163.53;4992027;28;20478;-63
2022/03/11 10:01:47;;;;;;;9.05;5.68;;;;;;;6.52;29.52;103163.66;4994167;28;20054;-65
2022/03/11 10:04:13;;;;;;;11.07;5.80;;;;;;;6.57;29.73;103164.75;4995010;28;20061;-63
2022/03/11 10:06:43;;;;;;;16.88;7.22;;;;;;;6.63;29.84;103167.63;4995081;28;20057;-61
2022/03/11 10:09:30;;;;;;;13.60;6.13;;;;;;;6.61;28.21;103167.53;4999082;28;20610;-62
2022/03/11 10:11:57;;;;;;;10.07;5.40;;;;;;;6.63;28.87;103165.03;4995990;28;20070;-57
2022/03/11 10:14:29;;;;;;;12.65;4.97;;;;;;;6.63;29.29;103173.66;4993355;28;20062;-57
2022/03/11 10:16:56;;;;;;;13.10;6.15;;;;;;;6.56;28.65;103176.75;4992958;28;20053;-57
2022/03/11 10:19:23;;;;;;;17.88;5.60;;;;;;;6.49;28.89;103166.97;4995515;28;20054;-57
2022/03/11 10:21:51;;;;;;;10.05;6.07;;;;;;;6.55;29.00;103168.94;4996516;28;20054;-57
2022/03/11 10:24:22;;;;;;;13.55;5.97;;;;;;;6.51;28.61;103172.19;4995124;28;20060;-57
2022/03/11 10:26:51;;;;;;;12.40;6.18;;;;;;;6.41;28.32;103164.84;4992656;28;20457;-57
2022/03/11 10:29:21;;;;;;;13.13;5.82;;;;;;;6.29;28.36;103160.88;4992355;28;20053;-57
2022/03/11 10:31:50;;;;;;;12.25;5.80;;;;;;;6.26;28.83;103154.72;4991991;28;20057;-57
2022/03/11 10:34:20;;;;;;;10.88;5.20;;;;;;;6.18;28.30;103156.88;4992362;28;20049;-58
2022/03/11 10:36:49;;;;;;;12.32;5.70;;;;;;;6.14;28.54;103147.25;4993887;28;20441;-61
2022/03/11 10:39:18;;;;;;;9.73;4.65;;;;;;;6.23;27.85;103149.38;4992583;28;20073;-57
2022/03/11 10:41:46;;;;;;;27.85;5.43;;;;;;;6.35;27.61;103144.84;4993696;28;20053;-59
2022/03/11 10:44:12;;;;;;;15.55;7.70;;;;;;;6.45;27.50;103141.88;4994210;28;20058;-58
2022/03/11 10:46:39;;;;;;;8.35;4.07;;;;;;;6.51;27.12;103136.13;4987433;28;20057;-58
2022/03/11 10:49:06;;;;;;;14.02;4.97;;;;;;;6.48;26.74;103139.44;4988993;28;20331;-60
2022/03/11 10:51:34;;;;;;;8.07;4.35;;;;;;;6.59;27.09;103134.78;4992105;28;20491;-62
2022/03/11 10:54:02;;;;;;;11.32;5.57;;;;;;;6.59;26.32;103137.34;4981437;28;20324;-63
2022/03/11 10:56:34;;;;;;;16.73;4.65;;;;;;;6.62;25.98;103140.06;4986010;28;20056;-63
2022/03/11 10:59:04;;;;;;;10.93;4.85;;;;;;;6.68;26.11;103129.16;4988737;28;20152;-56
2022/03/11 11:01:35;;;;;;;8.57;4.15;;;;;;;6.78;26.07;103131.38;4987583;28;20470;-66
2022/03/11 11:04:04;;;;;;;8.43;4.03;;;;;;;6.71;25.87;103125.03;4990087;28;20172;-59
2022/03/11 11:06:30;;;;;;;11.93;4.47;;;;;;;6.63;25.99;103131.53;4990634;28;20045;-56
2022/03/11 11:08:57;;;;;;;10.30;4.90;;;;;;;6.56;26.37;103120.06;4996349;28;20077;-53
2022/03/11 11:11:23;;;;;;;9.57;4.18;;;;;;;6.53;26.14;103119.03;4985453;28;20045;-56
2022/03/11 11:13:52;;;;;;;9.75;4.22;;;;;;;6.50;25.91;103129.22;4984210;28;20475;-61
2022/03/11 11:16:24;;;;;;;11.02;4.85;;;;;;;6.51;26.43;103120.66;4983419;28;20058;-61
2022/03/11 11:18:52;;;;;;;8.65;5.25;;;;;;;6.50;26.73;103113.75;4990214;28;20046;-60